sensor_id;sensor_type;location;lat;lon;timestamp;P1;durP1;ratioP1;P2;durP2;ratioP2
21192;SDS011;10754;51.106;7.164;2022-11-15T00:00:23;4.95;;;3.80;;
21192;SDS011;10754;51.106;7.164;2022-11-15T00:02:49;3.63;;;3.33;;
21192;SDS011;10754;51.106;7.164;2022-11-15T00:05:14;4.22;;;3.45;;
21192;SDS011;10754;51.106;7.164;2022-11-15T00:07:40;5.07;;;4.13;;
21192;SDS011;10754;51.106;7.164;2022-11-15T00:10:05;4.50;;;4.10;;
21192;SDS011;10754;51.106;7.164;2022-11-15T00:12:31;4.57;;;3.97;;
21192;SDS011;10754;51.106;7.164;2022-11-15T00:14:57;4.22;;;3.78;;
21192;SDS011;10754;51.106;7.164;2022-11-15T00:17:22;4.30;;;3.87;;
21192;SDS011;10754;51.106;7.164;2022-11-15T00:19:48;4.45;;;4.05;;
21192;SDS011;10754;51.106;7.164;2022-11-15T00:22:14;5.70;;;4.50;;
21192;SDS011;10754;51.106;7.164;2022-11-15T00:24:39;6.75;;;3.88;;
21192;SDS011;10754;51.106;7.164;2022-11-15T00:27:05;5.80;;;4.15;;
21192;SDS011;10754;51.106;7.164;2022-11-15T00:29:30;4.65;;;3.83;;
21192;SDS011;10754;51.106;7.164;2022-11-15T00:31:56;6.25;;;4.47;;
21192;SDS011;10754;51.106;7.164;2022-11-15T00:34:21;4.30;;;3.90;;
21192;SDS011;10754;51.106;7.164;2022-11-15T00:36:47;4.78;;;4.00;;
21192;SDS011;10754;51.106;7.164;2022-11-15T00:39:12;4.43;;;3.85;;
21192;SDS011;10754;51.106;7.164;2022-11-15T00:41:37;4.73;;;3.90;;
21192;SDS011;10754;51.106;7.164;2022-11-15T00:44:03;4.88;;;3.47;;
21192;SDS011;10754;51.106;7.164;2022-11-15T00:46:28;4.03;;;3.63;;
21192;SDS011;10754;51.106;7.164;2022-11-15T00:48:54;3.60;;;3.30;;
21192;SDS011;10754;51.106;7.164;2022-11-15T00:51:19;5.25;;;3.63;;
21192;SDS011;10754;51.106;7.164;2022-11-15T00:53:45;5.13;;;4.03;;
21192;SDS011;10754;51.106;7.164;2022-11-15T00:56:10;5.07;;;3.83;;
21192;SDS011;10754;51.106;7.164;2022-11-15T00:58:36;3.83;;;3.50;;
21192;SDS011;10754;51.106;7.164;2022-11-15T01:01:05;5.32;;;3.95;;
21192;SDS011;10754;51.106;7.164;2022-11-15T01:03:33;3.88;;;3.47;;
21192;SDS011;10754;51.106;7.164;2022-11-15T01:05:59;5.65;;;4.10;;
21192;SDS011;10754;51.106;7.164;2022-11-15T01:08:25;4.68;;;4.28;;
21192;SDS011;10754;51.106;7.164;2022-11-15T01:10:50;4.43;;;3.75;;
21192;SDS011;10754;51.106;7.164;2022-11-15T01:13:16;5.00;;;3.75;;
21192;SDS011;10754;51.106;7.164;2022-11-15T01:15:42;4.18;;;3.53;;
21192;SDS011;10754;51.106;7.164;2022-11-15T01:18:07;5.15;;;4.05;;
21192;SDS011;10754;51.106;7.164;2022-11-15T01:20:33;4.25;;;3.50;;
21192;SDS011;10754;51.106;7.164;2022-11-15T01:22:59;5.38;;;3.70;;
21192;SDS011;10754;51.106;7.164;2022-11-15T01:25:24;5.03;;;3.55;;
21192;SDS011;10754;51.106;7.164;2022-11-15T01:27:50;4.00;;;3.40;;
21192;SDS011;10754;51.106;7.164;2022-11-15T01:30:15;3.92;;;3.63;;
21192;SDS011;10754;51.106;7.164;2022-11-15T01:32:41;4.90;;;3.50;;
21192;SDS011;10754;51.106;7.164;2022-11-15T01:35:06;4.68;;;3.78;;
21192;SDS011;10754;51.106;7.164;2022-11-15T01:37:32;4.22;;;3.67;;
21192;SDS011;10754;51.106;7.164;2022-11-15T01:39:57;4.15;;;3.53;;
21192;SDS011;10754;51.106;7.164;2022-11-15T01:42:23;5.53;;;3.95;;
21192;SDS011;10754;51.106;7.164;2022-11-15T01:44:52;4.72;;;3.90;;
21192;SDS011;10754;51.106;7.164;2022-11-15T01:50:00;5.93;;;3.97;;
21192;SDS011;10754;51.106;7.164;2022-11-15T01:52:39;3.90;;;3.45;;
21192;SDS011;10754;51.106;7.164;2022-11-15T01:55:16;4.53;;;3.50;;
21192;SDS011;10754;51.106;7.164;2022-11-15T01:57:47;3.72;;;3.42;;
21192;SDS011;10754;51.106;7.164;2022-11-15T02:00:16;7.97;;;3.80;;
21192;SDS011;10754;51.106;7.164;2022-11-15T02:02:42;3.92;;;3.53;;
21192;SDS011;10754;51.106;7.164;2022-11-15T02:05:08;5.93;;;3.97;;
21192;SDS011;10754;51.106;7.164;2022-11-15T02:07:34;4.97;;;3.78;;
21192;SDS011;10754;51.106;7.164;2022-11-15T02:10:02;4.40;;;3.70;;
21192;SDS011;10754;51.106;7.164;2022-11-15T02:12:32;4.25;;;3.70;;
21192;SDS011;10754;51.106;7.164;2022-11-15T02:14:58;5.15;;;4.18;;
21192;SDS011;10754;51.106;7.164;2022-11-15T02:20:30;4.72;;;3.75;;
21192;SDS011;10754;51.106;7.164;2022-11-15T02:32:23;4.32;;;3.92;;
21192;SDS011;10754;51.106;7.164;2022-11-15T02:35:11;5.70;;;4.28;;
21192;SDS011;10754;51.106;7.164;2022-11-15T02:37:51;6.10;;;4.13;;
21192;SDS011;10754;51.106;7.164;2022-11-15T02:43:12;4.68;;;3.25;;
21192;SDS011;10754;51.106;7.164;2022-11-15T02:46:06;5.03;;;3.85;;
21192;SDS011;10754;51.106;7.164;2022-11-15T02:48:36;4.13;;;3.72;;
21192;SDS011;10754;51.106;7.164;2022-11-15T02:51:02;4.97;;;3.85;;
21192;SDS011;10754;51.106;7.164;2022-11-15T02:53:28;4.97;;;4.03;;
21192;SDS011;10754;51.106;7.164;2022-11-15T02:55:54;4.40;;;3.13;;
21192;SDS011;10754;51.106;7.164;2022-11-15T03:06:35;4.25;;;3.35;;
21192;SDS011;10754;51.106;7.164;2022-11-15T03:09:33;5.22;;;3.05;;
21192;SDS011;10754;51.106;7.164;2022-11-15T03:12:05;3.25;;;2.92;;
21192;SDS011;10754;51.106;7.164;2022-11-15T03:14:37;3.58;;;3.28;;
21192;SDS011;10754;51.106;7.164;2022-11-15T03:17:19;3.67;;;3.38;;
21192;SDS011;10754;51.106;7.164;2022-11-15T03:19:54;3.58;;;3.28;;
21192;SDS011;10754;51.106;7.164;2022-11-15T03:22:23;3.88;;;3.45;;
21192;SDS011;10754;51.106;7.164;2022-11-15T03:24:52;3.10;;;2.90;;
21192;SDS011;10754;51.106;7.164;2022-11-15T03:27:21;3.72;;;3.08;;
21192;SDS011;10754;51.106;7.164;2022-11-15T03:29:51;3.42;;;3.13;;
21192;SDS011;10754;51.106;7.164;2022-11-15T03:32:25;3.95;;;3.40;;
21192;SDS011;10754;51.106;7.164;2022-11-15T03:37:38;3.47;;;3.17;;
21192;SDS011;10754;51.106;7.164;2022-11-15T03:40:12;3.60;;;2.80;;
21192;SDS011;10754;51.106;7.164;2022-11-15T03:42:46;3.15;;;2.88;;
21192;SDS011;10754;51.106;7.164;2022-11-15T03:45:23;3.90;;;2.90;;
21192;SDS011;10754;51.106;7.164;2022-11-15T03:48:00;2.80;;;2.60;;
21192;SDS011;10754;51.106;7.164;2022-11-15T03:50:32;3.10;;;2.67;;
21192;SDS011;10754;51.106;7.164;2022-11-15T03:52:58;3.40;;;2.67;;
21192;SDS011;10754;51.106;7.164;2022-11-15T03:55:24;3.15;;;2.75;;
21192;SDS011;10754;51.106;7.164;2022-11-15T03:57:51;2.97;;;2.67;;
21192;SDS011;10754;51.106;7.164;2022-11-15T04:00:22;3.40;;;2.83;;
21192;SDS011;10754;51.106;7.164;2022-11-15T04:02:48;2.80;;;2.60;;
21192;SDS011;10754;51.106;7.164;2022-11-15T04:05:14;3.53;;;3.05;;
21192;SDS011;10754;51.106;7.164;2022-11-15T04:07:39;3.05;;;2.83;;
21192;SDS011;10754;51.106;7.164;2022-11-15T04:10:05;3.60;;;3.10;;
21192;SDS011;10754;51.106;7.164;2022-11-15T04:12:31;3.40;;;3.10;;
21192;SDS011;10754;51.106;7.164;2022-11-15T04:17:35;3.28;;;2.97;;
21192;SDS011;10754;51.106;7.164;2022-11-15T04:20:02;3.78;;;3.10;;
21192;SDS011;10754;51.106;7.164;2022-11-15T04:23:01;4.25;;;3.13;;
21192;SDS011;10754;51.106;7.164;2022-11-15T04:25:46;3.80;;;3.30;;
21192;SDS011;10754;51.106;7.164;2022-11-15T04:28:16;3.72;;;3.42;;
21192;SDS011;10754;51.106;7.164;2022-11-15T04:30:41;3.70;;;3.38;;
21192;SDS011;10754;51.106;7.164;2022-11-15T04:33:07;3.65;;;3.35;;
21192;SDS011;10754;51.106;7.164;2022-11-15T04:35:32;3.63;;;3.33;;
21192;SDS011;10754;51.106;7.164;2022-11-15T04:37:58;3.60;;;3.30;;
21192;SDS011;10754;51.106;7.164;2022-11-15T04:40:24;3.92;;;3.63;;
21192;SDS011;10754;51.106;7.164;2022-11-15T04:42:49;3.70;;;3.40;;
21192;SDS011;10754;51.106;7.164;2022-11-15T04:45:15;3.80;;;3.50;;
21192;SDS011;10754;51.106;7.164;2022-11-15T04:47:43;3.25;;;2.95;;
21192;SDS011;10754;51.106;7.164;2022-11-15T04:50:09;4.25;;;3.85;;
21192;SDS011;10754;51.106;7.164;2022-11-15T04:52:38;4.13;;;3.83;;
21192;SDS011;10754;51.106;7.164;2022-11-15T04:55:23;3.42;;;3.13;;
21192;SDS011;10754;51.106;7.164;2022-11-15T04:57:56;3.40;;;3.10;;
21192;SDS011;10754;51.106;7.164;2022-11-15T05:00:26;3.38;;;3.05;;
21192;SDS011;10754;51.106;7.164;2022-11-15T05:02:52;4.03;;;3.17;;
21192;SDS011;10754;51.106;7.164;2022-11-15T05:05:36;3.38;;;3.15;;
21192;SDS011;10754;51.106;7.164;2022-11-15T05:08:02;3.10;;;2.80;;
21192;SDS011;10754;51.106;7.164;2022-11-15T05:10:28;2.90;;;2.70;;
21192;SDS011;10754;51.106;7.164;2022-11-15T05:12:53;3.92;;;3.03;;
21192;SDS011;10754;51.106;7.164;2022-11-15T05:15:19;3.13;;;2.83;;
21192;SDS011;10754;51.106;7.164;2022-11-15T05:17:44;2.92;;;2.70;;
21192;SDS011;10754;51.106;7.164;2022-11-15T05:20:11;2.58;;;2.38;;
21192;SDS011;10754;51.106;7.164;2022-11-15T05:22:36;2.90;;;2.60;;
21192;SDS011;10754;51.106;7.164;2022-11-15T05:25:02;2.60;;;2.40;;
21192;SDS011;10754;51.106;7.164;2022-11-15T05:27:28;3.30;;;3.00;;
21192;SDS011;10754;51.106;7.164;2022-11-15T05:29:53;2.83;;;2.58;;
21192;SDS011;10754;51.106;7.164;2022-11-15T05:32:19;2.60;;;2.40;;
21192;SDS011;10754;51.106;7.164;2022-11-15T05:34:45;2.97;;;2.20;;
21192;SDS011;10754;51.106;7.164;2022-11-15T05:37:11;2.25;;;1.95;;
21192;SDS011;10754;51.106;7.164;2022-11-15T05:39:38;2.92;;;2.35;;
21192;SDS011;10754;51.106;7.164;2022-11-15T05:42:13;2.25;;;2.00;;
21192;SDS011;10754;51.106;7.164;2022-11-15T05:44:41;2.63;;;2.15;;
21192;SDS011;10754;51.106;7.164;2022-11-15T05:47:10;2.33;;;2.13;;
21192;SDS011;10754;51.106;7.164;2022-11-15T05:49:38;3.00;;;2.08;;
21192;SDS011;10754;51.106;7.164;2022-11-15T05:52:07;2.22;;;2.03;;
21192;SDS011;10754;51.106;7.164;2022-11-15T05:54:35;2.55;;;2.10;;
21192;SDS011;10754;51.106;7.164;2022-11-15T05:57:02;2.00;;;1.80;;
21192;SDS011;10754;51.106;7.164;2022-11-15T05:59:29;3.17;;;2.00;;
21192;SDS011;10754;51.106;7.164;2022-11-15T06:01:56;2.38;;;2.17;;
21192;SDS011;10754;51.106;7.164;2022-11-15T06:04:22;1.98;;;1.80;;
21192;SDS011;10754;51.106;7.164;2022-11-15T06:06:47;2.22;;;2.03;;
21192;SDS011;10754;51.106;7.164;2022-11-15T06:09:13;2.28;;;1.63;;
21192;SDS011;10754;51.106;7.164;2022-11-15T06:11:38;2.50;;;2.22;;
21192;SDS011;10754;51.106;7.164;2022-11-15T06:14:04;2.25;;;1.83;;
21192;SDS011;10754;51.106;7.164;2022-11-15T06:16:29;1.85;;;1.67;;
21192;SDS011;10754;51.106;7.164;2022-11-15T06:18:55;2.45;;;1.60;;
21192;SDS011;10754;51.106;7.164;2022-11-15T06:21:20;2.25;;;1.75;;
21192;SDS011;10754;51.106;7.164;2022-11-15T06:23:46;2.28;;;1.63;;
21192;SDS011;10754;51.106;7.164;2022-11-15T06:26:12;2.17;;;1.80;;
21192;SDS011;10754;51.106;7.164;2022-11-15T06:28:37;2.10;;;1.90;;
21192;SDS011;10754;51.106;7.164;2022-11-15T06:31:07;2.97;;;1.50;;
21192;SDS011;10754;51.106;7.164;2022-11-15T06:33:35;2.97;;;1.77;;
21192;SDS011;10754;51.106;7.164;2022-11-15T06:36:05;1.75;;;1.65;;
21192;SDS011;10754;51.106;7.164;2022-11-15T06:38:36;1.95;;;1.73;;
21192;SDS011;10754;51.106;7.164;2022-11-15T06:41:02;1.90;;;1.48;;
21192;SDS011;10754;51.106;7.164;2022-11-15T06:43:32;1.60;;;1.50;;
21192;SDS011;10754;51.106;7.164;2022-11-15T06:45:59;2.15;;;1.60;;
21192;SDS011;10754;51.106;7.164;2022-11-15T06:48:25;1.38;;;1.27;;
21192;SDS011;10754;51.106;7.164;2022-11-15T06:50:52;1.60;;;1.50;;
21192;SDS011;10754;51.106;7.164;2022-11-15T06:53:19;1.58;;;1.48;;
21192;SDS011;10754;51.106;7.164;2022-11-15T06:55:45;1.52;;;1.38;;
21192;SDS011;10754;51.106;7.164;2022-11-15T06:58:10;2.17;;;1.60;;
21192;SDS011;10754;51.106;7.164;2022-11-15T07:00:36;1.95;;;1.40;;
21192;SDS011;10754;51.106;7.164;2022-11-15T07:03:01;2.38;;;1.38;;
21192;SDS011;10754;51.106;7.164;2022-11-15T07:05:27;1.80;;;1.50;;
21192;SDS011;10754;51.106;7.164;2022-11-15T07:07:53;1.40;;;1.30;;
21192;SDS011;10754;51.106;7.164;2022-11-15T07:10:20;1.50;;;1.40;;
21192;SDS011;10754;51.106;7.164;2022-11-15T07:12:47;1.40;;;1.20;;
21192;SDS011;10754;51.106;7.164;2022-11-15T07:15:13;2.50;;;1.50;;
21192;SDS011;10754;51.106;7.164;2022-11-15T07:17:39;1.30;;;1.20;;
21192;SDS011;10754;51.106;7.164;2022-11-15T07:20:05;1.40;;;1.27;;
21192;SDS011;10754;51.106;7.164;2022-11-15T07:22:31;3.10;;;1.17;;
21192;SDS011;10754;51.106;7.164;2022-11-15T07:24:56;2.22;;;1.30;;
21192;SDS011;10754;51.106;7.164;2022-11-15T07:27:22;2.47;;;1.40;;
21192;SDS011;10754;51.106;7.164;2022-11-15T07:29:47;1.75;;;1.38;;
21192;SDS011;10754;51.106;7.164;2022-11-15T07:32:13;1.85;;;1.40;;
21192;SDS011;10754;51.106;7.164;2022-11-15T07:34:38;1.50;;;1.30;;
21192;SDS011;10754;51.106;7.164;2022-11-15T07:37:04;1.90;;;1.20;;
21192;SDS011;10754;51.106;7.164;2022-11-15T07:39:29;1.87;;;1.40;;
21192;SDS011;10754;51.106;7.164;2022-11-15T07:41:55;2.20;;;1.55;;
21192;SDS011;10754;51.106;7.164;2022-11-15T07:44:40;1.73;;;1.10;;
21192;SDS011;10754;51.106;7.164;2022-11-15T07:47:06;2.35;;;1.40;;
21192;SDS011;10754;51.106;7.164;2022-11-15T07:49:31;2.15;;;1.30;;
21192;SDS011;10754;51.106;7.164;2022-11-15T07:51:57;1.73;;;1.17;;
21192;SDS011;10754;51.106;7.164;2022-11-15T07:54:22;1.05;;;0.80;;
21192;SDS011;10754;51.106;7.164;2022-11-15T07:56:48;1.77;;;1.20;;
21192;SDS011;10754;51.106;7.164;2022-11-15T07:59:13;1.27;;;0.95;;
21192;SDS011;10754;51.106;7.164;2022-11-15T08:01:39;2.28;;;1.42;;
21192;SDS011;10754;51.106;7.164;2022-11-15T08:04:04;1.20;;;1.10;;
21192;SDS011;10754;51.106;7.164;2022-11-15T08:06:30;1.17;;;1.08;;
21192;SDS011;10754;51.106;7.164;2022-11-15T08:08:55;1.92;;;1.20;;
21192;SDS011;10754;51.106;7.164;2022-11-15T08:11:21;1.20;;;1.10;;
21192;SDS011;10754;51.106;7.164;2022-11-15T08:13:46;2.28;;;1.08;;
21192;SDS011;10754;51.106;7.164;2022-11-15T08:16:12;0.93;;;0.90;;
21192;SDS011;10754;51.106;7.164;2022-11-15T08:18:37;1.65;;;0.98;;
21192;SDS011;10754;51.106;7.164;2022-11-15T08:21:03;1.40;;;1.00;;
21192;SDS011;10754;51.106;7.164;2022-11-15T08:23:29;1.65;;;1.30;;
21192;SDS011;10754;51.106;7.164;2022-11-15T08:25:59;1.40;;;1.20;;
21192;SDS011;10754;51.106;7.164;2022-11-15T08:28:25;1.60;;;1.00;;
21192;SDS011;10754;51.106;7.164;2022-11-15T08:30:51;1.25;;;1.10;;
21192;SDS011;10754;51.106;7.164;2022-11-15T08:33:16;1.10;;;1.02;;
21192;SDS011;10754;51.106;7.164;2022-11-15T08:35:42;1.70;;;1.20;;
21192;SDS011;10754;51.106;7.164;2022-11-15T08:38:09;1.15;;;0.82;;
21192;SDS011;10754;51.106;7.164;2022-11-15T08:40:34;1.55;;;0.90;;
21192;SDS011;10754;51.106;7.164;2022-11-15T08:43:00;1.52;;;1.05;;
21192;SDS011;10754;51.106;7.164;2022-11-15T08:45:27;1.33;;;0.82;;
21192;SDS011;10754;51.106;7.164;2022-11-15T08:47:53;1.40;;;1.15;;
21192;SDS011;10754;51.106;7.164;2022-11-15T08:50:19;1.80;;;1.00;;
21192;SDS011;10754;51.106;7.164;2022-11-15T08:52:45;1.00;;;0.85;;
21192;SDS011;10754;51.106;7.164;2022-11-15T08:55:10;1.33;;;0.95;;
21192;SDS011;10754;51.106;7.164;2022-11-15T08:57:36;1.48;;;0.90;;
21192;SDS011;10754;51.106;7.164;2022-11-15T09:00:02;2.08;;;1.17;;
21192;SDS011;10754;51.106;7.164;2022-11-15T09:02:28;1.33;;;0.95;;
21192;SDS011;10754;51.106;7.164;2022-11-15T09:04:54;1.30;;;0.70;;
21192;SDS011;10754;51.106;7.164;2022-11-15T09:07:19;2.03;;;1.00;;
21192;SDS011;10754;51.106;7.164;2022-11-15T09:09:45;1.35;;;1.00;;
21192;SDS011;10754;51.106;7.164;2022-11-15T09:12:10;1.85;;;0.80;;
21192;SDS011;10754;51.106;7.164;2022-11-15T09:14:36;1.23;;;0.77;;
21192;SDS011;10754;51.106;7.164;2022-11-15T09:17:02;1.40;;;0.88;;
21192;SDS011;10754;51.106;7.164;2022-11-15T09:19:28;5.03;;;1.00;;
21192;SDS011;10754;51.106;7.164;2022-11-15T09:21:53;0.80;;;0.65;;
21192;SDS011;10754;51.106;7.164;2022-11-15T09:24:19;0.90;;;0.70;;
21192;SDS011;10754;51.106;7.164;2022-11-15T09:26:44;1.33;;;0.70;;
21192;SDS011;10754;51.106;7.164;2022-11-15T09:29:10;2.08;;;0.90;;
21192;SDS011;10754;51.106;7.164;2022-11-15T09:31:36;1.27;;;0.77;;
21192;SDS011;10754;51.106;7.164;2022-11-15T09:34:01;1.90;;;0.98;;
21192;SDS011;10754;51.106;7.164;2022-11-15T09:36:27;1.20;;;0.70;;
21192;SDS011;10754;51.106;7.164;2022-11-15T09:38:52;1.90;;;0.65;;
21192;SDS011;10754;51.106;7.164;2022-11-15T09:41:22;0.85;;;0.60;;
21192;SDS011;10754;51.106;7.164;2022-11-15T09:47:15;1.33;;;0.80;;
21192;SDS011;10754;51.106;7.164;2022-11-15T09:49:22;0.80;;;0.60;;
21192;SDS011;10754;51.106;7.164;2022-11-15T09:51:49;1.10;;;0.52;;
21192;SDS011;10754;51.106;7.164;2022-11-15T09:54:21;0.65;;;0.50;;
21192;SDS011;10754;51.106;7.164;2022-11-15T10:05:56;0.70;;;0.50;;
21192;SDS011;10754;51.106;7.164;2022-11-15T10:11:20;0.75;;;0.43;;
21192;SDS011;10754;51.106;7.164;2022-11-15T10:13:48;1.63;;;0.60;;
21192;SDS011;10754;51.106;7.164;2022-11-15T10:24:28;0.73;;;0.40;;
21192;SDS011;10754;51.106;7.164;2022-11-15T10:27:11;1.85;;;0.80;;
21192;SDS011;10754;51.106;7.164;2022-11-15T10:29:47;1.77;;;0.50;;
21192;SDS011;10754;51.106;7.164;2022-11-15T10:32:15;2.60;;;0.82;;
21192;SDS011;10754;51.106;7.164;2022-11-15T10:34:44;1.40;;;0.77;;
21192;SDS011;10754;51.106;7.164;2022-11-15T10:37:11;1.40;;;0.70;;
21192;SDS011;10754;51.106;7.164;2022-11-15T10:39:36;0.70;;;0.55;;
21192;SDS011;10754;51.106;7.164;2022-11-15T10:42:15;1.08;;;0.60;;
21192;SDS011;10754;51.106;7.164;2022-11-15T10:44:43;1.30;;;0.50;;
21192;SDS011;10754;51.106;7.164;2022-11-15T10:47:21;0.68;;;0.50;;
21192;SDS011;10754;51.106;7.164;2022-11-15T10:49:54;2.55;;;0.68;;
21192;SDS011;10754;51.106;7.164;2022-11-15T10:52:21;1.80;;;0.95;;
21192;SDS011;10754;51.106;7.164;2022-11-15T10:54:48;1.38;;;0.52;;
21192;SDS011;10754;51.106;7.164;2022-11-15T10:57:18;0.77;;;0.55;;
21192;SDS011;10754;51.106;7.164;2022-11-15T10:59:50;2.10;;;0.47;;
21192;SDS011;10754;51.106;7.164;2022-11-15T11:06:02;0.68;;;0.40;;
21192;SDS011;10754;51.106;7.164;2022-11-15T11:08:09;1.98;;;0.70;;
21192;SDS011;10754;51.106;7.164;2022-11-15T11:10:54;0.98;;;0.43;;
21192;SDS011;10754;51.106;7.164;2022-11-15T11:13:22;1.48;;;0.43;;
21192;SDS011;10754;51.106;7.164;2022-11-15T11:18:57;0.73;;;0.40;;
21192;SDS011;10754;51.106;7.164;2022-11-15T11:24:31;1.70;;;0.40;;
21192;SDS011;10754;51.106;7.164;2022-11-15T11:27:20;0.70;;;0.35;;
21192;SDS011;10754;51.106;7.164;2022-11-15T11:29:57;1.33;;;0.45;;
21192;SDS011;10754;51.106;7.164;2022-11-15T11:32:38;1.00;;;0.50;;
21192;SDS011;10754;51.106;7.164;2022-11-15T11:35:24;0.60;;;0.32;;
21192;SDS011;10754;51.106;7.164;2022-11-15T11:38:17;0.63;;;0.30;;
21192;SDS011;10754;51.106;7.164;2022-11-15T11:41:00;1.45;;;0.63;;
21192;SDS011;10754;51.106;7.164;2022-11-15T11:44:02;1.50;;;0.50;;
21192;SDS011;10754;51.106;7.164;2022-11-15T11:46:48;1.10;;;0.38;;
21192;SDS011;10754;51.106;7.164;2022-11-15T11:49:25;0.63;;;0.32;;
21192;SDS011;10754;51.106;7.164;2022-11-15T11:54:34;1.23;;;0.55;;
21192;SDS011;10754;51.106;7.164;2022-11-15T11:57:33;1.95;;;0.40;;
21192;SDS011;10754;51.106;7.164;2022-11-15T12:00:12;1.20;;;0.40;;
21192;SDS011;10754;51.106;7.164;2022-11-15T12:05:32;2.28;;;0.30;;
21192;SDS011;10754;51.106;7.164;2022-11-15T12:08:01;0.93;;;0.30;;
21192;SDS011;10754;51.106;7.164;2022-11-15T12:10:45;1.50;;;0.55;;
21192;SDS011;10754;51.106;7.164;2022-11-15T12:13:16;1.55;;;0.40;;
21192;SDS011;10754;51.106;7.164;2022-11-15T12:15:47;1.92;;;0.38;;
21192;SDS011;10754;51.106;7.164;2022-11-15T12:18:33;1.25;;;0.57;;
21192;SDS011;10754;51.106;7.164;2022-11-15T12:21:13;0.57;;;0.30;;
21192;SDS011;10754;51.106;7.164;2022-11-15T12:23:45;2.20;;;0.52;;
21192;SDS011;10754;51.106;7.164;2022-11-15T12:26:19;1.27;;;0.65;;
21192;SDS011;10754;51.106;7.164;2022-11-15T12:28:54;0.85;;;0.30;;
21192;SDS011;10754;51.106;7.164;2022-11-15T12:34:00;1.30;;;0.40;;
21192;SDS011;10754;51.106;7.164;2022-11-15T12:36:38;1.77;;;0.30;;
21192;SDS011;10754;51.106;7.164;2022-11-15T12:39:07;1.45;;;0.30;;
21192;SDS011;10754;51.106;7.164;2022-11-15T12:41:43;1.35;;;0.40;;
21192;SDS011;10754;51.106;7.164;2022-11-15T13:02:18;0.80;;;0.52;;
21192;SDS011;10754;51.106;7.164;2022-11-15T13:04:44;3.10;;;0.50;;
21192;SDS011;10754;51.106;7.164;2022-11-15T13:07:10;1.63;;;0.65;;
21192;SDS011;10754;51.106;7.164;2022-11-15T13:12:52;1.40;;;0.50;;
21192;SDS011;10754;51.106;7.164;2022-11-15T13:15:36;1.38;;;0.63;;
21192;SDS011;10754;51.106;7.164;2022-11-15T13:18:29;2.20;;;0.60;;
21192;SDS011;10754;51.106;7.164;2022-11-15T13:21:16;3.53;;;0.60;;
21192;SDS011;10754;51.106;7.164;2022-11-15T13:24:04;1.02;;;0.52;;
21192;SDS011;10754;51.106;7.164;2022-11-15T13:26:34;0.50;;;0.30;;
21192;SDS011;10754;51.106;7.164;2022-11-15T13:29:04;0.60;;;0.32;;
21192;SDS011;10754;51.106;7.164;2022-11-15T13:31:40;1.38;;;0.60;;
21192;SDS011;10754;51.106;7.164;2022-11-15T13:34:16;2.28;;;0.80;;
21192;SDS011;10754;51.106;7.164;2022-11-15T13:36:49;5.38;;;0.60;;
21192;SDS011;10754;51.106;7.164;2022-11-15T13:42:01;3.08;;;0.80;;
21192;SDS011;10754;51.106;7.164;2022-11-15T13:44:28;1.23;;;0.73;;
21192;SDS011;10754;51.106;7.164;2022-11-15T13:49:57;2.22;;;0.80;;
21192;SDS011;10754;51.106;7.164;2022-11-15T13:52:25;1.63;;;1.10;;
21192;SDS011;10754;51.106;7.164;2022-11-15T13:57:41;1.70;;;0.95;;
21192;SDS011;10754;51.106;7.164;2022-11-15T14:00:45;1.70;;;1.00;;
21192;SDS011;10754;51.106;7.164;2022-11-15T14:05:41;1.52;;;1.00;;
21192;SDS011;10754;51.106;7.164;2022-11-15T14:08:21;1.73;;;1.15;;
21192;SDS011;10754;51.106;7.164;2022-11-15T14:10:48;1.58;;;1.27;;
21192;SDS011;10754;51.106;7.164;2022-11-15T14:13:32;1.30;;;0.90;;
21192;SDS011;10754;51.106;7.164;2022-11-15T14:16:13;2.45;;;1.00;;
21192;SDS011;10754;51.106;7.164;2022-11-15T14:18:50;2.45;;;1.05;;
21192;SDS011;10754;51.106;7.164;2022-11-15T14:21:17;2.13;;;1.23;;
21192;SDS011;10754;51.106;7.164;2022-11-15T14:23:44;1.70;;;1.20;;
21192;SDS011;10754;51.106;7.164;2022-11-15T14:26:30;2.10;;;0.90;;
21192;SDS011;10754;51.106;7.164;2022-11-15T14:29:41;2.58;;;1.05;;
21192;SDS011;10754;51.106;7.164;2022-11-15T14:31:48;2.95;;;1.00;;
21192;SDS011;10754;51.106;7.164;2022-11-15T14:34:14;1.10;;;1.00;;
21192;SDS011;10754;51.106;7.164;2022-11-15T14:36:40;2.28;;;0.98;;
21192;SDS011;10754;51.106;7.164;2022-11-15T14:39:05;2.22;;;0.98;;
21192;SDS011;10754;51.106;7.164;2022-11-15T14:41:34;2.10;;;1.17;;
21192;SDS011;10754;51.106;7.164;2022-11-15T14:44:02;1.00;;;0.90;;
21192;SDS011;10754;51.106;7.164;2022-11-15T14:46:28;2.03;;;1.20;;
21192;SDS011;10754;51.106;7.164;2022-11-15T14:48:55;1.55;;;0.88;;
21192;SDS011;10754;51.106;7.164;2022-11-15T14:51:20;2.35;;;1.08;;
21192;SDS011;10754;51.106;7.164;2022-11-15T14:53:46;1.67;;;1.08;;
21192;SDS011;10754;51.106;7.164;2022-11-15T14:56:12;1.60;;;0.82;;
21192;SDS011;10754;51.106;7.164;2022-11-15T14:58:38;1.55;;;0.75;;
21192;SDS011;10754;51.106;7.164;2022-11-15T15:01:12;1.58;;;0.90;;
21192;SDS011;10754;51.106;7.164;2022-11-15T15:03:40;2.35;;;0.98;;
21192;SDS011;10754;51.106;7.164;2022-11-15T15:06:05;2.17;;;1.38;;
21192;SDS011;10754;51.106;7.164;2022-11-15T15:08:31;0.88;;;0.80;;
21192;SDS011;10754;51.106;7.164;2022-11-15T15:10:56;2.60;;;0.90;;
21192;SDS011;10754;51.106;7.164;2022-11-15T15:13:23;1.33;;;0.73;;
21192;SDS011;10754;51.106;7.164;2022-11-15T15:15:49;2.13;;;0.90;;
21192;SDS011;10754;51.106;7.164;2022-11-15T15:18:16;0.95;;;0.70;;
21192;SDS011;10754;51.106;7.164;2022-11-15T15:20:43;1.60;;;0.80;;
21192;SDS011;10754;51.106;7.164;2022-11-15T15:23:14;2.08;;;0.90;;
21192;SDS011;10754;51.106;7.164;2022-11-15T15:25:42;2.10;;;1.10;;
21192;SDS011;10754;51.106;7.164;2022-11-15T15:28:08;1.40;;;1.00;;
21192;SDS011;10754;51.106;7.164;2022-11-15T15:30:34;2.90;;;0.90;;
21192;SDS011;10754;51.106;7.164;2022-11-15T15:32:59;1.35;;;0.88;;
21192;SDS011;10754;51.106;7.164;2022-11-15T15:35:26;2.88;;;1.48;;
21192;SDS011;10754;51.106;7.164;2022-11-15T15:37:56;1.63;;;1.30;;
21192;SDS011;10754;51.106;7.164;2022-11-15T15:40:21;2.15;;;1.20;;
21192;SDS011;10754;51.106;7.164;2022-11-15T15:42:48;3.42;;;1.25;;
21192;SDS011;10754;51.106;7.164;2022-11-15T15:45:14;2.28;;;0.77;;
21192;SDS011;10754;51.106;7.164;2022-11-15T15:47:41;1.85;;;1.20;;
21192;SDS011;10754;51.106;7.164;2022-11-15T15:50:26;1.70;;;0.93;;
21192;SDS011;10754;51.106;7.164;2022-11-15T15:52:54;2.20;;;1.02;;
21192;SDS011;10754;51.106;7.164;2022-11-15T15:55:21;3.92;;;0.90;;
21192;SDS011;10754;51.106;7.164;2022-11-15T15:57:47;2.35;;;0.90;;
21192;SDS011;10754;51.106;7.164;2022-11-15T16:00:13;1.60;;;0.90;;
21192;SDS011;10754;51.106;7.164;2022-11-15T16:02:39;1.38;;;0.95;;
21192;SDS011;10754;51.106;7.164;2022-11-15T16:05:06;0.98;;;0.80;;
21192;SDS011;10754;51.106;7.164;2022-11-15T16:07:32;0.70;;;0.65;;
21192;SDS011;10754;51.106;7.164;2022-11-15T16:09:58;0.73;;;0.70;;
21192;SDS011;10754;51.106;7.164;2022-11-15T16:12:35;1.60;;;0.90;;
21192;SDS011;10754;51.106;7.164;2022-11-15T16:15:02;0.90;;;0.75;;
21192;SDS011;10754;51.106;7.164;2022-11-15T16:17:34;2.00;;;0.90;;
21192;SDS011;10754;51.106;7.164;2022-11-15T16:20:05;0.80;;;0.75;;
21192;SDS011;10754;51.106;7.164;2022-11-15T16:22:31;2.28;;;1.00;;
21192;SDS011;10754;51.106;7.164;2022-11-15T16:24:56;3.05;;;0.85;;
21192;SDS011;10754;51.106;7.164;2022-11-15T16:27:22;1.10;;;0.80;;
21192;SDS011;10754;51.106;7.164;2022-11-15T16:29:48;2.25;;;0.93;;
21192;SDS011;10754;51.106;7.164;2022-11-15T16:32:14;1.05;;;0.73;;
21192;SDS011;10754;51.106;7.164;2022-11-15T16:34:40;1.00;;;0.90;;
21192;SDS011;10754;51.106;7.164;2022-11-15T16:37:08;1.17;;;0.70;;
21192;SDS011;10754;51.106;7.164;2022-11-15T16:39:49;1.73;;;0.90;;
21192;SDS011;10754;51.106;7.164;2022-11-15T16:42:15;0.98;;;0.85;;
21192;SDS011;10754;51.106;7.164;2022-11-15T16:44:40;0.88;;;0.70;;